Time;durP1;ratioP1;P1;durP2;ratioP2;P2;SDS_P1;SDS_P2;PMS_P1;PMS_P2;Temp;Humidity;BMP_temperature;BMP_pressure;BME280_temperature;BME280_humidity;BME280_pressure;Samples;Min_cycle;Max_cycle;Signal;HPM_P1;HPM_P2
2021/10/26 00:01:06;;;;;;;0.88;0.88;;;;;;;-0.20;75.71;100898.53;4839487;29;20417;-75
2021/10/26 00:03:32;;;;;;;1.02;1.02;;;;;;;-0.25;76.27;100884.81;4839384;29;20060;-74
2021/10/26 00:05:58;;;;;;;1.15;1.15;;;;;;;-0.17;76.19;100892.56;4838914;29;20583;-76
2021/10/26 00:08:24;;;;;;;1.30;1.30;;;;;;;-0.21;75.99;100884.00;4839321;29;20054;-75
2021/10/26 00:10:50;;;;;;;0.70;0.70;;;;;;;-0.22;76.37;100892.53;4839260;29;20095;-75
2021/10/26 00:13:16;;;;;;;0.52;0.52;;;;;;;-0.17;76.57;100883.16;4822959;29;20197;-76
2021/10/26 00:15:42;;;;;;;1.25;1.25;;;;;;;-0.19;76.45;100884.00;4839126;29;20561;-77
2021/10/26 00:18:09;;;;;;;0.60;0.60;;;;;;;-0.22;76.60;100877.13;4822870;29;20568;-76
2021/10/26 00:20:35;;;;;;;2.55;0.80;;;;;;;-0.16;76.37;100866.91;4829367;29;20058;-76
2021/10/26 00:23:01;;;;;;;1.45;1.42;;;;;;;-0.15;76.64;100867.75;4839024;29;20098;-75
2021/10/26 00:25:27;;;;;;;1.67;1.25;;;;;;;-0.13;76.55;100874.59;4839209;29;20130;-75
2021/10/26 00:27:53;;;;;;;1.25;1.25;;;;;;;-0.10;76.51;100861.78;4839105;29;20456;-77
2021/10/26 00:30:20;;;;;;;1.75;1.75;;;;;;;-0.19;76.72;100860.91;4822563;29;20093;-76
2021/10/26 00:32:46;;;;;;;1.88;1.88;;;;;;;-0.23;76.87;100862.59;4837871;29;20505;-76
2021/10/26 00:35:13;;;;;;;1.33;0.68;;;;;;;-0.32;77.36;100856.56;4838719;29;20553;-77
2021/10/26 00:37:39;;;;;;;0.90;0.90;;;;;;;-0.30;77.58;100858.31;4838770;29;20053;-75
2021/10/26 00:40:06;;;;;;;1.33;1.33;;;;;;;-0.35;77.72;100854.84;4837553;29;20065;-76
2021/10/26 00:42:33;;;;;;;1.20;1.20;;;;;;;-0.40;77.90;100850.53;4838880;29;20062;-76
2021/10/26 00:44:59;;;;;;;1.42;1.33;;;;;;;-0.40;78.33;100851.41;4840524;29;20424;-76
2021/10/26 00:47:25;;;;;;;2.97;2.10;;;;;;;-0.46;78.67;100842.81;4841603;29;20060;-74
2021/10/26 00:49:51;;;;;;;1.10;1.10;;;;;;;-0.31;78.25;100855.72;4841316;29;20057;-75
2021/10/26 00:52:17;;;;;;;1.20;1.20;;;;;;;-0.38;78.59;100854.81;4841253;29;20073;-73
2021/10/26 00:54:45;;;;;;;1.58;1.58;;;;;;;-0.40;78.64;100841.16;4842426;29;20137;-75
2021/10/26 00:57:12;;;;;;;3.60;2.65;;;;;;;-0.30;78.33;100848.03;4810812;29;20447;-74
2021/10/26 00:59:38;;;;;;;1.33;1.23;;;;;;;-0.37;78.75;100840.28;4841146;29;20134;-74
2021/10/26 01:02:04;;;;;;;0.60;0.60;;;;;;;-0.39;78.47;100852.25;4841053;29;20073;-76
2021/10/26 01:04:30;;;;;;;1.33;1.27;;;;;;;-0.41;78.76;100843.69;4841133;29;20076;-74
2021/10/26 01:06:57;;;;;;;1.05;1.05;;;;;;;-0.38;79.01;100849.69;4841195;29;20065;-75
2021/10/26 01:09:26;;;;;;;1.13;1.13;;;;;;;-0.39;79.39;100847.13;4842166;29;20066;-76
2021/10/26 01:11:53;;;;;;;0.60;0.60;;;;;;;-0.41;78.96;100839.41;4825561;29;20717;-75
2021/10/26 01:14:19;;;;;;;1.33;1.33;;;;;;;-0.39;79.14;100840.28;4810549;29;20133;-76
2021/10/26 01:16:45;;;;;;;9.05;2.92;;;;;;;-0.33;79.10;100837.75;4825677;29;20086;-75
2021/10/26 01:19:14;;;;;;;0.73;0.73;;;;;;;-0.32;79.14;100834.31;4840810;29;20141;-75
2021/10/26 01:21:42;;;;;;;0.80;0.80;;;;;;;-0.31;79.25;100837.75;4825634;29;20668;-74
2021/10/26 01:24:09;;;;;;;0.73;0.73;;;;;;;-0.32;79.03;100836.91;4843954;29;20567;-76
2021/10/26 01:26:36;;;;;;;1.48;1.48;;;;;;;-0.38;79.39;100826.59;4841585;29;20050;-74
2021/10/26 01:29:04;;;;;;;1.08;1.08;;;;;;;-0.42;79.80;100826.56;4840949;29;20068;-74
2021/10/26 01:31:34;;;;;;;1.05;1.05;;;;;;;-0.34;79.69;100820.66;4840343;29;20143;-75
2021/10/26 01:34:23;;;;;;;0.88;0.88;;;;;;;-0.35;79.45;100818.94;4841811;29;20207;-75
2021/10/26 01:36:50;;;;;;;1.50;1.40;;;;;;;-0.25;79.37;100813.00;4840809;29;20054;-72
2021/10/26 01:39:16;;;;;;;1.45;1.38;;;;;;;-0.26;79.46;100808.69;4840459;29;20058;-72
2021/10/26 01:41:42;;;;;;;0.60;0.60;;;;;;;-0.24;79.31;100819.84;4840360;29;20046;-73
2021/10/26 01:44:08;;;;;;;21.27;1.88;;;;;;;-0.31;79.95;100820.66;4840459;29;20105;-73
2021/10/26 01:46:38;;;;;;;1.08;0.90;;;;;;;-0.32;79.83;100812.94;4855896;29;20139;-73
2021/10/26 01:49:04;;;;;;;1.77;1.67;;;;;;;-0.24;79.70;100811.28;4840246;29;20061;-74
2021/10/26 01:51:30;;;;;;;1.02;1.02;;;;;;;-0.25;79.59;100804.44;4840389;29;20056;-73
2021/10/26 01:53:57;;;;;;;0.77;0.77;;;;;;;-0.24;79.38;100799.31;4841583;29;20058;-73
2021/10/26 01:56:23;;;;;;;3.92;1.35;;;;;;;-0.21;79.38;100799.34;4840729;29;20212;-73
2021/10/26 01:59:15;;;;;;;0.70;0.70;;;;;;;-0.23;79.38;100795.06;4839371;29;20057;-73
2021/10/26 02:01:45;;;;;;;1.20;1.20;;;;;;;-0.24;79.80;100791.63;4816380;29;20078;-73
2021/10/26 02:04:23;;;;;;;0.85;0.85;;;;;;;-0.21;79.16;100771.09;4821716;29;20415;-74
2021/10/26 02:06:49;;;;;;;0.52;0.52;;;;;;;-0.15;79.48;100772.81;4822786;29;20050;-75
2021/10/26 02:09:15;;;;;;;0.60;0.60;;;;;;;-0.07;79.38;100769.44;4825994;29;20062;-74
2021/10/26 02:11:41;;;;;;;0.38;0.38;;;;;;;-0.11;79.40;100767.72;4824397;29;20054;-73
2021/10/26 02:14:07;;;;;;;0.88;0.88;;;;;;;-0.11;79.46;100770.28;4821750;29;20130;-72
2021/10/26 02:16:33;;;;;;;1.02;1.02;;;;;;;-0.03;79.41;100773.72;4821926;29;20141;-73
2021/10/26 02:19:00;;;;;;;12.05;2.47;;;;;;;-0.06;79.22;100771.16;4821805;29;20081;-73
2021/10/26 02:21:26;;;;;;;0.60;0.60;;;;;;;-0.14;79.41;100772.84;4836507;29;20054;-74
2021/10/26 02:23:52;;;;;;;0.60;0.60;;;;;;;-0.17;80.17;100764.28;4822749;29;20062;-74
2021/10/26 02:26:18;;;;;;;2.70;2.50;;;;;;;-0.09;79.60;100760.00;4806308;29;20058;-73
2021/10/26 02:28:46;;;;;;;0.80;0.70;;;;;;;-0.17;79.65;100757.44;4822681;29;20054;-74
2021/10/26 02:31:12;;;;;;;1.33;1.33;;;;;;;-0.18;79.92;100760.84;4836492;29;20062;-76
2021/10/26 02:33:38;;;;;;;1.08;1.08;;;;;;;-0.18;79.98;100748.03;4821395;29;20046;-76
2021/10/26 02:36:04;;;;;;;1.08;1.08;;;;;;;-0.18;80.07;100755.72;4822720;29;20057;-75
2021/10/26 02:38:31;;;;;;;0.88;0.88;;;;;;;-0.15;80.30;100754.88;4821397;29;20077;-75
2021/10/26 02:40:57;;;;;;;2.42;2.33;;;;;;;-0.13;80.02;100754.00;4791284;29;20054;-76
2021/10/26 02:43:25;;;;;;;0.95;0.95;;;;;;;-0.14;80.21;100752.31;4821441;29;20054;-75
2021/10/26 02:45:52;;;;;;;1.23;1.20;;;;;;;-0.11;80.15;100760.03;4821068;29;20055;-76
2021/10/26 02:48:18;;;;;;;2.40;2.30;;;;;;;-0.09;80.26;100755.75;4822331;29;20054;-74
2021/10/26 02:50:44;;;;;;;1.00;1.00;;;;;;;-0.13;80.19;100751.44;4836248;29;20436;-75
2021/10/26 02:53:10;;;;;;;1.73;1.20;;;;;;;-0.16;80.28;100738.63;4836198;29;20106;-74
2021/10/26 02:55:36;;;;;;;0.80;0.80;;;;;;;-0.11;80.39;100736.94;4822383;29;20054;-75
2021/10/26 02:58:03;;;;;;;0.68;0.68;;;;;;;-0.15;80.73;100742.91;4836440;29;20629;-73
2021/10/26 03:00:28;;;;;;;1.50;1.50;;;;;;;-0.11;79.97;100736.94;4836374;29;20066;-75
2021/10/26 03:03:01;;;;;;;0.70;0.70;;;;;;;-0.13;80.22;100728.34;4836200;29;20054;-74
2021/10/26 03:05:27;;;;;;;1.88;1.77;;;;;;;-0.18;80.09;100727.50;4820737;29;20054;-74
2021/10/26 03:07:54;;;;;;;3.67;2.10;;;;;;;-0.14;80.35;100726.66;4819753;29;20142;-74
2021/10/26 03:10:20;;;;;;;0.60;0.60;;;;;;;-0.16;80.38;100723.22;4820705;29;20054;-75
2021/10/26 03:12:46;;;;;;;0.43;0.43;;;;;;;-0.05;80.18;100726.69;4822042;29;20513;-74
2021/10/26 03:15:13;;;;;;;0.65;0.65;;;;;;;-0.14;80.28;100716.41;4820666;29;20054;-74
2021/10/26 03:17:39;;;;;;;0.60;0.60;;;;;;;-0.14;80.35;100716.41;4820749;29;20058;-75
2021/10/26 03:20:17;;;;;;;0.50;0.50;;;;;;;-0.13;80.05;100718.09;4827739;29;20056;-73
2021/10/26 03:22:45;;;;;;;1.05;1.05;;;;;;;-0.19;80.35;100718.09;4838836;29;20118;-72
2021/10/26 03:25:11;;;;;;;1.23;1.23;;;;;;;-0.19;80.63;100718.09;4823572;29;20063;-75
2021/10/26 03:27:38;;;;;;;1.15;1.15;;;;;;;-0.21;80.47;100717.22;4838708;29;20490;-74
2021/10/26 03:30:09;;;;;;;0.73;0.73;;;;;;;-0.21;80.56;100729.19;4838772;29;20066;-74
2021/10/26 03:32:36;;;;;;;0.50;0.50;;;;;;;-0.22;80.40;100733.47;4838741;29;20049;-74
2021/10/26 03:35:22;;;;;;;0.68;0.68;;;;;;;-0.23;80.79;100715.53;4816403;29;20056;-74
2021/10/26 03:37:49;;;;;;;1.05;1.05;;;;;;;-0.16;80.37;100723.22;4838513;29;20148;-75
2021/10/26 03:40:15;;;;;;;0.93;0.93;;;;;;;-0.25;80.95;100718.06;4838413;29;20148;-75
2021/10/26 03:42:42;;;;;;;1.23;1.23;;;;;;;-0.26;80.79;100725.78;4824489;29;20057;-73
2021/10/26 03:45:08;;;;;;;0.70;0.70;;;;;;;-0.30;80.96;100719.78;4808206;29;20489;-75
2021/10/26 03:47:39;;;;;;;0.90;0.90;;;;;;;-0.27;81.37;100712.09;4809354;29;20093;-77
2021/10/26 03:50:07;;;;;;;0.98;0.98;;;;;;;-0.28;80.76;100712.94;4824670;29;20058;-76
2021/10/26 03:52:33;;;;;;;1.00;1.00;;;;;;;-0.27;80.72;100704.41;4839506;29;20140;-79
2021/10/26 03:55:00;;;;;;;0.98;0.98;;;;;;;-0.26;81.05;100703.53;4824136;29;20053;-78
2021/10/26 03:57:26;;;;;;;1.17;1.17;;;;;;;-0.26;80.79;100700.97;4831063;29;20053;-77
2021/10/26 03:59:53;;;;;;;0.93;0.93;;;;;;;-0.26;80.66;100695.00;4849701;29;20226;-79
2021/10/26 04:02:23;;;;;;;0.70;0.70;;;;;;;-0.28;80.62;100705.25;4838176;29;20057;-78
2021/10/26 04:04:51;;;;;;;0.55;0.55;;;;;;;-0.36;81.08;100688.97;4854282;29;20150;-78
2021/10/26 04:07:17;;;;;;;1.00;1.00;;;;;;;-0.30;81.10;100698.41;4824872;29;20081;-78
2021/10/26 04:14:47;;;;;;;0.85;0.85;;;;;;;-0.21;80.40;100699.28;4838516;29;20053;-77
2021/10/26 04:17:14;;;;;;;0.85;0.85;;;;;;;-0.27;80.86;100699.28;4840162;29;20057;-77
2021/10/26 04:19:41;;;;;;;0.90;0.90;;;;;;;-0.26;80.54;100700.13;4822566;29;20564;-76
2021/10/26 04:22:08;;;;;;;0.50;0.50;;;;;;;-0.24;80.71;100696.72;4807943;29;20057;-77
2021/10/26 04:24:34;;;;;;;0.80;0.80;;;;;;;-0.19;80.22;100702.69;4808086;29;20049;-77
2021/10/26 04:27:00;;;;;;;0.77;0.77;;;;;;;-0.31;80.21;100689.84;4792148;29;20062;-78
2021/10/26 04:29:30;;;;;;;0.98;0.98;;;;;;;-0.20;80.22;100695.88;4823064;29;20136;-77
2021/10/26 04:31:56;;;;;;;0.95;0.95;;;;;;;-0.05;80.13;100701.00;4822658;29;20441;-76
2021/10/26 04:34:26;;;;;;;1.75;1.75;;;;;;;-0.06;79.73;100689.03;4807917;29;20054;-75
2021/10/26 04:36:52;;;;;;;1.27;1.27;;;;;;;-0.02;79.80;100688.19;4822601;29;20593;-77
2021/10/26 04:39:18;;;;;;;1.90;1.88;;;;;;;0.02;79.20;100689.06;4807305;29;20046;-76
2021/10/26 04:41:44;;;;;;;2.10;2.00;;;;;;;0.14;78.89;100690.75;4838790;29;20493;-76
2021/10/26 04:44:10;;;;;;;1.20;1.20;;;;;;;0.14;78.98;100683.91;4822772;29;20081;-78
2021/10/26 04:46:36;;;;;;;0.85;0.85;;;;;;;0.19;78.70;100683.94;4822456;29;20089;-77
2021/10/26 04:49:02;;;;;;;1.10;1.10;;;;;;;0.38;78.39;100691.63;4822325;29;20210;-78
2021/10/26 04:51:30;;;;;;;4.93;1.02;;;;;;;0.67;76.99;100676.19;4807197;29;20540;-76
2021/10/26 04:53:56;;;;;;;2.00;1.83;;;;;;;0.75;76.22;100677.06;4822367;29;20041;-75
2021/10/26 04:56:22;;;;;;;3.22;1.15;;;;;;;0.80;76.41;100669.31;4838597;29;20473;-75
2021/10/26 04:59:15;;;;;;;2.13;2.03;;;;;;;1.40;74.06;100675.97;4838224;29;20136;-75
2021/10/26 05:01:41;;;;;;;1.00;1.00;;;;;;;1.80;72.97;100667.16;4807847;29;20103;-77
2021/10/26 05:04:07;;;;;;;1.58;1.48;;;;;;;2.19;70.97;100662.59;4822878;29;20144;-74
2021/10/26 05:06:34;;;;;;;1.13;1.13;;;;;;;2.06;71.32;100657.53;4814950;29;20129;-77
2021/10/26 05:09:02;;;;;;;1.65;1.60;;;;;;;1.88;71.71;100669.69;4833726;29;20054;-78
2021/10/26 05:11:28;;;;;;;2.55;1.30;;;;;;;1.81;71.91;100665.44;4818500;29;20050;-74
2021/10/26 05:13:55;;;;;;;1.27;1.27;;;;;;;1.55;73.06;100668.16;4805465;29;20058;-75
2021/10/26 05:16:43;;;;;;;1.60;1.52;;;;;;;1.36;73.49;100669.13;4823587;29;20416;-75
2021/10/26 05:19:29;;;;;;;0.63;0.63;;;;;;;1.33;73.52;100652.00;4823366;29;20064;-74
2021/10/26 05:22:14;;;;;;;0.70;0.70;;;;;;;1.34;74.26;100663.97;4837524;29;20141;-76
2021/10/26 05:24:59;;;;;;;1.25;1.25;;;;;;;1.41;74.11;100662.22;4808139;29;20061;-75
2021/10/26 05:27:41;;;;;;;1.10;1.05;;;;;;;1.41;73.47;100657.94;4820347;29;20054;-75
2021/10/26 05:30:09;;;;;;;1.35;1.35;;;;;;;1.65;73.01;100664.69;4821404;29;20431;-75
2021/10/26 05:32:35;;;;;;;1.23;1.23;;;;;;;1.94;71.59;100660.19;4823287;29;20516;-75
2021/10/26 05:35:01;;;;;;;1.33;1.33;;;;;;;2.09;71.50;100657.50;4793664;29;20185;-77
2021/10/26 05:37:28;;;;;;;1.02;1.02;;;;;;;2.16;71.32;100660.06;4843632;29;20061;-76
2021/10/26 05:39:55;;;;;;;1.60;1.60;;;;;;;1.98;71.23;100668.75;4843194;29;20504;-77
2021/10/26 05:42:21;;;;;;;1.23;1.23;;;;;;;2.00;71.63;100656.72;4832600;29;20434;-74
2021/10/26 05:44:48;;;;;;;1.08;1.08;;;;;;;2.00;71.04;100662.72;4841112;29;20046;-73
2021/10/26 05:47:14;;;;;;;1.05;1.05;;;;;;;1.95;71.47;100649.06;4823615;29;20053;-75
2021/10/26 05:49:40;;;;;;;2.20;2.10;;;;;;;2.32;70.33;100659.94;4840553;29;20531;-73
2021/10/26 05:52:07;;;;;;;1.48;1.38;;;;;;;2.33;70.28;100658.19;4809393;29;20054;-73
2021/10/26 05:54:33;;;;;;;1.02;1.02;;;;;;;2.81;69.03;100654.31;4840633;29;20491;-71
2021/10/26 05:56:59;;;;;;;1.00;1.00;;;;;;;2.68;68.03;100651.00;4839389;29;20072;-74
2021/10/26 05:59:26;;;;;;;2.00;1.90;;;;;;;2.63;69.14;100655.31;4840696;29;20512;-75
2021/10/26 06:01:52;;;;;;;1.88;1.85;;;;;;;2.82;68.18;100646.53;4822446;29;20058;-74
2021/10/26 06:04:19;;;;;;;3.35;1.98;;;;;;;2.73;68.44;100651.78;4835287;29;20335;-74
2021/10/26 06:06:46;;;;;;;1.10;1.10;;;;;;;2.68;68.20;100638.09;4824108;29;20053;-74
2021/10/26 06:09:15;;;;;;;1.25;1.25;;;;;;;2.24;69.90;100655.69;4823895;29;20061;-75
2021/10/26 06:11:42;;;;;;;1.23;1.23;;;;;;;2.47;69.13;100652.03;4823892;29;20088;-75
2021/10/26 06:14:08;;;;;;;1.63;1.55;;;;;;;2.78;68.21;100659.50;4824175;29;20130;-74
2021/10/26 06:16:37;;;;;;;1.33;1.33;;;;;;;2.99;67.81;100664.41;4822829;29;20054;-74
2021/10/26 06:19:05;;;;;;;1.13;1.13;;;;;;;3.16;67.40;100657.34;4809315;29;20050;-75
2021/10/26 06:21:32;;;;;;;0.70;0.70;;;;;;;2.82;67.70;100641.38;4836964;29;20054;-77
2021/10/26 06:23:59;;;;;;;1.67;1.58;;;;;;;2.99;66.91;100652.38;4826514;29;20046;-75
2021/10/26 06:26:28;;;;;;;0.60;0.60;;;;;;;3.17;66.55;100656.47;4822211;29;20065;-75
2021/10/26 06:29:03;;;;;;;0.98;0.98;;;;;;;3.03;67.27;100656.63;4825207;29;20473;-76
2021/10/26 06:31:31;;;;;;;9.13;2.60;;;;;;;3.20;66.75;100653.84;4839200;29;20669;-77
2021/10/26 06:33:59;;;;;;;0.93;0.93;;;;;;;2.84;68.47;100639.66;4839234;29;20046;-75
2021/10/26 06:36:28;;;;;;;2.88;2.13;;;;;;;3.17;66.45;100660.78;4822263;29;20054;-76
2021/10/26 06:38:55;;;;;;;0.63;0.63;;;;;;;3.27;66.05;100657.22;4830362;29;20136;-74
2021/10/26 06:41:21;;;;;;;1.42;1.38;;;;;;;3.51;65.91;100649.13;4829015;29;20115;-73
2021/10/26 06:44:07;;;;;;;1.45;1.45;;;;;;;3.99;64.10;100643.25;4821996;29;20058;-73
2021/10/26 06:46:36;;;;;;;1.52;1.52;;;;;;;4.14;63.39;100643.03;4839598;29;20191;-75
2021/10/26 06:49:21;;;;;;;2.13;1.92;;;;;;;3.98;63.63;100635.53;4837968;29;20547;-75
2021/10/26 06:52:13;;;;;;;1.85;1.38;;;;;;;4.18;64.08;100629.19;4808003;29;20076;-74
2021/10/26 06:55:19;;;;;;;1.92;1.88;;;;;;;4.13;63.32;100630.97;4782829;30;20055;-75
2021/10/26 06:58:04;;;;;;;1.95;1.85;;;;;;;3.98;63.41;100626.06;4826021;29;20046;-74
2021/10/26 07:00:45;;;;;;;2.80;1.10;;;;;;;4.41;62.77;100633.97;4837238;29;20133;-76
2021/10/26 07:03:30;;;;;;;1.23;1.23;;;;;;;4.57;62.67;100629.38;4839696;29;20068;-76
2021/10/26 07:06:06;;;;;;;1.40;1.40;;;;;;;5.08;60.20;100628.38;4838493;29;20110;-76
2021/10/26 07:08:33;;;;;;;1.48;1.38;;;;;;;4.66;61.06;100626.63;4833702;29;20612;-75
2021/10/26 07:11:19;;;;;;;4.18;2.25;;;;;;;4.69;62.47;100621.38;4838736;29;20061;-76
2021/10/26 07:13:45;;;;;;;2.25;2.15;;;;;;;4.36;61.93;100619.41;4840349;29;20056;-76
2021/10/26 07:16:11;;;;;;;1.75;1.65;;;;;;;4.43;61.62;100597.75;4843425;29;20053;-74
2021/10/26 07:18:37;;;;;;;2.75;2.65;;;;;;;4.86;61.23;100609.00;4843887;29;20054;-75
2021/10/26 07:21:03;;;;;;;1.70;1.70;;;;;;;4.53;61.80;100609.63;4857069;29;20067;-75
2021/10/26 07:23:42;;;;;;;4.05;3.72;;;;;;;5.56;58.60;100607.53;4849064;29;20054;-75
2021/10/26 07:26:08;;;;;;;2.78;2.55;;;;;;;5.48;57.93;100612.00;4850849;29;20050;-75
2021/10/26 07:28:35;;;;;;;1.38;1.38;;;;;;;4.66;61.01;100603.34;4823254;29;20053;-74
2021/10/26 07:31:03;;;;;;;1.55;1.45;;;;;;;4.78;61.06;100603.09;4863553;29;20084;-76
2021/10/26 07:33:32;;;;;;;1.73;1.63;;;;;;;4.93;60.73;100600.25;4859471;29;20550;-75
2021/10/26 07:36:05;;;;;;;11.43;3.97;;;;;;;5.14;59.75;100599.78;4859343;29;20053;-74
2021/10/26 07:38:36;;;;;;;2.17;1.73;;;;;;;5.00;60.11;100595.78;4860094;29;20056;-75
2021/10/26 07:41:03;;;;;;;4.55;2.75;;;;;;;5.32;59.84;100587.34;4859356;29;20535;-74
2021/10/26 07:43:47;;;;;;;2.22;2.13;;;;;;;5.19;60.15;100591.94;4856351;29;20213;-75
2021/10/26 07:46:32;;;;;;;1.67;1.58;;;;;;;5.66;58.53;100590.91;4857050;29;20157;-76
2021/10/26 07:49:02;;;;;;;1.10;1.10;;;;;;;4.98;60.14;100598.41;4840682;29;20114;-75
2021/10/26 07:51:29;;;;;;;1.58;1.38;;;;;;;6.35;55.76;100579.72;4835828;29;20517;-76
2021/10/26 07:53:55;;;;;;;1.92;1.88;;;;;;;5.59;57.75;100576.38;4828278;29;20424;-75
2021/10/26 07:56:23;;;;;;;12.63;3.10;;;;;;;5.73;57.37;100554.44;4837437;29;20050;-75
2021/10/26 07:58:49;;;;;;;1.85;1.75;;;;;;;5.76;57.96;100571.63;4837638;29;20058;-76
2021/10/26 08:01:16;;;;;;;4.22;2.40;;;;;;;6.00;57.91;100573.69;4854323;29;20064;-76
2021/10/26 08:04:08;;;;;;;4.57;2.83;;;;;;;6.48;55.72;100560.38;4835195;29;20053;-76
2021/10/26 08:06:44;;;;;;;1.83;1.75;;;;;;;7.02;54.32;100569.19;4843231;29;20081;-78
2021/10/26 08:09:10;;;;;;;2.30;2.20;;;;;;;6.57;54.96;100571.34;4840697;29;20129;-76
2021/10/26 08:11:36;;;;;;;11.57;2.13;;;;;;;7.04;53.53;100563.94;4856991;29;20057;-76
2021/10/26 08:14:03;;;;;;;2.15;2.05;;;;;;;7.01;54.05;100567.50;4825412;29;20064;-75
2021/10/26 08:16:30;;;;;;;1.20;1.20;;;;;;;6.62;54.34;100568.59;4825055;29;20054;-76
2021/10/26 08:18:56;;;;;;;1.80;1.75;;;;;;;6.73;54.91;100558.78;4825303;29;20657;-76
2021/10/26 08:21:24;;;;;;;1.80;1.75;;;;;;;7.24;53.86;100559.88;4836481;29;20122;-76
2021/10/26 08:23:52;;;;;;;2.55;1.98;;;;;;;6.82;54.24;100558.53;4841782;29;20088;-76
2021/10/26 08:26:26;;;;;;;1.88;1.77;;;;;;;6.41;55.14;100566.59;4837102;29;20726;-76
2021/10/26 08:29:03;;;;;;;2.08;1.92;;;;;;;5.87;56.71;100564.50;4837141;29;20127;-76
2021/10/26 08:31:42;;;;;;;2.90;2.25;;;;;;;6.43;55.26;100562.22;4836921;29;20458;-75
2021/10/26 08:34:12;;;;;;;2.60;2.50;;;;;;;6.66;54.71;100552.06;4837176;29;20551;-75
2021/10/26 08:36:39;;;;;;;0.75;0.75;;;;;;;6.64;54.87;100540.91;4823224;29;20053;-77
2021/10/26 08:39:07;;;;;;;1.75;1.67;;;;;;;6.36;55.58;100558.06;4838600;29;20118;-77
2021/10/26 08:41:47;;;;;;;3.15;2.63;;;;;;;6.46;55.59;100562.13;4811633;29;20057;-78
2021/10/26 08:44:17;;;;;;;2.40;2.25;;;;;;;6.50;55.65;100559.44;4821648;29;20054;-77
2021/10/26 08:46:44;;;;;;;1.50;1.50;;;;;;;6.32;56.05;100553.84;4822083;29;20433;-76
2021/10/26 08:49:14;;;;;;;4.45;2.67;;;;;;;6.48;55.39;100531.84;4807395;29;20057;-76
2021/10/26 08:52:00;;;;;;;1.80;1.80;;;;;;;6.50;55.98;100549.03;4837326;29;20046;-80
2021/10/26 08:54:27;;;;;;;1.90;1.80;;;;;;;6.24;56.54;100534.19;4836846;29;20137;-78
2021/10/26 08:57:22;;;;;;;2.33;2.22;;;;;;;6.24;56.58;100539.38;4829219;29;20098;-77
2021/10/26 09:00:12;;;;;;;2.85;2.65;;;;;;;6.50;56.48;100537.81;4835246;29;20103;-79
2021/10/26 09:02:39;;;;;;;1.85;1.75;;;;;;;6.43;55.94;100534.53;4837197;29;20053;-78
2021/10/26 09:05:09;;;;;;;1.15;1.15;;;;;;;6.16;57.09;100536.13;4837530;29;20054;-82
2021/10/26 09:07:36;;;;;;;;;;;;;;;6.24;56.88;100523.81;4809838;29;20054;-78
2021/10/26 09:10:15;;;;;;;0.82;0.82;;;;;;;6.06;56.55;100526.88;4840629;29;19928;-78
2021/10/26 09:19:41;;;;;;;2.17;2.08;;;;;;;6.45;56.02;100518.91;4832491;29;20130;-77
2021/10/26 09:22:15;;;;;;;1.67;1.67;;;;;;;6.33;56.33;100525.31;4823709;29;20054;-77
2021/10/26 09:25:00;;;;;;;1.80;1.75;;;;;;;6.11;55.96;100514.66;4808327;29;20042;-77
2021/10/26 09:27:27;;;;;;;2.33;2.17;;;;;;;6.29;55.65;100523.69;4837523;29;20256;-77
2021/10/26 09:29:57;;;;;;;2.20;2.10;;;;;;;6.50;55.77;100507.56;4821822;29;20563;-78
2021/10/26 09:32:37;;;;;;;1.23;1.23;;;;;;;6.24;55.81;100520.38;4839721;29;20453;-76
2021/10/26 09:35:08;;;;;;;1.63;1.52;;;;;;;6.39;55.92;100504.38;4840145;29;20050;-77
2021/10/26 09:37:39;;;;;;;2.45;1.80;;;;;;;6.49;55.50;100495.47;4793473;29;20050;-79
2021/10/26 09:40:06;;;;;;;1.27;1.17;;;;;;;6.40;55.48;100510.44;4823634;29;20095;-75
2021/10/26 09:42:44;;;;;;;2.05;1.95;;;;;;;6.31;55.67;100511.53;4840685;29;20460;-77
2021/10/26 09:45:12;;;;;;;2.85;2.65;;;;;;;6.53;55.89;100509.19;4809419;29;20194;-76
2021/10/26 09:47:39;;;;;;;2.50;1.92;;;;;;;6.37;55.76;100495.81;4809279;29;20082;-77
2021/10/26 09:50:10;;;;;;;1.98;1.92;;;;;;;6.54;54.83;100492.75;4825039;29;20163;-77
2021/10/26 09:52:44;;;;;;;2.08;1.98;;;;;;;6.52;55.27;100495.38;4841429;29;20085;-78
2021/10/26 09:57:57;;;;;;;2.53;2.40;;;;;;;6.68;54.84;100485.41;4841471;29;20073;-76
2021/10/26 10:00:27;;;;;;;1.98;1.88;;;;;;;6.75;55.02;100466.19;4841337;29;20058;-77
2021/10/26 10:03:08;;;;;;;2.17;2.03;;;;;;;7.01;53.94;100471.44;4841466;29;20524;-78
2021/10/26 10:05:36;;;;;;;1.13;1.13;;;;;;;6.95;53.90;100463.84;4841241;29;20053;-76
2021/10/26 10:08:23;;;;;;;1.58;1.48;;;;;;;7.11;54.12;100466.81;4825143;29;20516;-76
2021/10/26 10:10:53;;;;;;;1.85;1.77;;;;;;;7.13;53.76;100442.50;4841265;29;20113;-79
2021/10/26 10:13:21;;;;;;;0.90;0.90;;;;;;;7.27;53.33;100449.84;4809740;29;20444;-78
2021/10/26 10:15:47;;;;;;;1.05;1.05;;;;;;;7.21;52.70;100443.13;4824936;29;20061;-77
2021/10/26 10:18:19;;;;;;;14.65;3.40;;;;;;;7.31;52.90;100447.13;4824052;29;20492;-77
2021/10/26 10:20:49;;;;;;;2.65;2.45;;;;;;;7.34;52.68;100435.78;4832543;29;20080;-77
2021/10/26 10:23:16;;;;;;;1.63;1.52;;;;;;;7.42;52.47;100419.97;4825405;29;20061;-78
2021/10/26 10:25:43;;;;;;;3.30;2.40;;;;;;;7.58;51.65;100413.34;4824551;29;20082;-78
2021/10/26 10:28:09;;;;;;;1.35;1.27;;;;;;;7.63;51.57;100427.88;4824761;29;20058;-76
2021/10/26 10:30:37;;;;;;;2.10;1.92;;;;;;;7.68;51.79;100423.38;4840924;29;20064;-77
2021/10/26 10:33:03;;;;;;;1.92;1.83;;;;;;;7.66;51.42;100424.31;4839755;29;20077;-77
2021/10/26 10:35:29;;;;;;;2.00;1.90;;;;;;;7.79;51.93;100418.66;4824585;29;20054;-77
2021/10/26 10:37:55;;;;;;;1.92;1.92;;;;;;;7.88;51.03;100426.13;4839659;29;20098;-77
2021/10/26 10:40:25;;;;;;;2.65;2.45;;;;;;;8.14;51.38;100414.84;4839715;29;20061;-78
2021/10/26 10:42:53;;;;;;;3.92;2.97;;;;;;;8.01;50.76;100392.78;4839789;29;20552;-77
2021/10/26 10:45:24;;;;;;;1.40;1.40;;;;;;;8.01;50.76;100413.56;4840939;29;20156;-79
2021/10/26 10:47:51;;;;;;;2.50;1.90;;;;;;;8.04;50.25;100400.47;4839776;29;20082;-79
2021/10/26 10:50:24;;;;;;;1.15;1.15;;;;;;;7.92;50.22;100398.28;4854929;29;20104;-77
2021/10/26 10:53:11;;;;;;;1.85;1.85;;;;;;;8.04;50.73;100391.81;4841890;29;20046;-76
2021/10/26 10:55:39;;;;;;;6.78;2.58;;;;;;;8.24;49.91;100392.81;4841802;29;20054;-76
2021/10/26 10:58:24;;;;;;;2.88;1.92;;;;;;;8.16;49.43;100386.16;4841083;29;20061;-77
2021/10/26 11:00:50;;;;;;;3.15;2.95;;;;;;;8.26;49.96;100371.91;4842391;29;20458;-76
2021/10/26 11:03:32;;;;;;;3.85;1.85;;;;;;;8.16;49.53;100379.22;4841870;29;20513;-78
2021/10/26 11:06:02;;;;;;;2.22;2.10;;;;;;;8.29;48.90;100364.03;4826103;29;20201;-76
2021/10/26 11:08:57;;;;;;;1.02;1.02;;;;;;;8.24;48.55;100360.72;4824722;29;20058;-78
2021/10/26 11:11:24;;;;;;;1.52;1.52;;;;;;;8.31;48.88;100362.25;4831973;29;20057;-77
2021/10/26 11:14:15;;;;;;;0.90;0.90;;;;;;;8.38;48.90;100361.06;4839205;29;20057;-77
2021/10/26 11:16:42;;;;;;;7.38;2.67;;;;;;;8.23;48.22;100367.69;4839909;29;20153;-79
2021/10/26 11:19:10;;;;;;;10.93;2.03;;;;;;;8.32;48.21;100350.91;4841905;29;20052;-74
2021/10/26 11:21:37;;;;;;;1.58;1.48;;;;;;;8.21;48.26;100343.47;4840727;29;20054;-76
2021/10/26 11:24:06;;;;;;;1.58;1.48;;;;;;;8.23;47.84;100352.06;4844134;29;20081;-76
2021/10/26 11:26:33;;;;;;;1.20;1.20;;;;;;;8.36;47.88;100357.69;4866589;29;20067;-75
2021/10/26 11:29:00;;;;;;;2.78;1.30;;;;;;;8.35;48.53;100354.25;4849918;29;20094;-76
2021/10/26 11:31:28;;;;;;;0.77;0.77;;;;;;;8.41;47.51;100352.34;4862546;29;20157;-76
2021/10/26 11:34:07;;;;;;;2.65;2.45;;;;;;;8.42;47.60;100346.19;4828961;29;20068;-75
2021/10/26 11:36:36;;;;;;;2.00;1.90;;;;;;;8.43;47.76;100343.56;4841960;29;20528;-77
2021/10/26 11:39:07;;;;;;;6.22;1.98;;;;;;;8.31;47.92;100342.25;4842159;29;20053;-77
2021/10/26 11:41:38;;;;;;;1.50;1.48;;;;;;;8.51;47.62;100353.69;4856380;29;20428;-77
2021/10/26 11:44:09;;;;;;;1.95;1.88;;;;;;;8.45;46.87;100348.69;4841750;29;20060;-77
2021/10/26 11:46:38;;;;;;;4.50;1.52;;;;;;;8.51;46.98;100335.47;4858533;29;20060;-79
2021/10/26 11:49:31;;;;;;;1.58;1.58;;;;;;;8.50;47.16;100333.75;4842082;29;20057;-79
2021/10/26 11:51:59;;;;;;;1.00;1.00;;;;;;;8.47;47.41;100326.06;4842055;29;20083;-78
2021/10/26 11:54:36;;;;;;;1.45;1.38;;;;;;;8.43;47.76;100333.16;4841210;29;20122;-79
2021/10/26 11:57:06;;;;;;;4.57;2.55;;;;;;;8.38;47.40;100335.91;4869602;29;20053;-79